sensor_id;sensor_type;location;lat;lon;timestamp;pressure;altitude;pressure_sealevel;temperature;humidity
13734;BME280;43298;52.560;13.508;2023-04-04T00:00:12;102494.34;;;-0.33;100.00
13734;BME280;43298;52.560;13.508;2023-04-04T00:02:38;102501.88;;;-0.36;100.00
13734;BME280;43298;52.560;13.508;2023-04-04T00:05:05;102496.06;;;-0.34;100.00
13734;BME280;43298;52.560;13.508;2023-04-04T00:07:32;102495.44;;;-0.25;100.00
13734;BME280;43298;52.560;13.508;2023-04-04T00:09:58;102496.91;;;-0.33;100.00
13734;BME280;43298;52.560;13.508;2023-04-04T00:12:23;102489.75;;;-0.45;100.00
13734;BME280;43298;52.560;13.508;2023-04-04T00:14:50;102496.72;;;-0.39;100.00
13734;BME280;43298;52.560;13.508;2023-04-04T00:17:16;102488.91;;;-0.45;100.00
13734;BME280;43298;52.560;13.508;2023-04-04T00:19:42;102491.44;;;-0.45;100.00
13734;BME280;43298;52.560;13.508;2023-04-04T00:22:09;102491.56;;;-0.42;100.00
13734;BME280;43298;52.560;13.508;2023-04-04T00:24:34;102487.50;;;-0.36;100.00
13734;BME280;43298;52.560;13.508;2023-04-04T00:27:01;102492.44;;;-0.40;100.00
13734;BME280;43298;52.560;13.508;2023-04-04T00:29:27;102491.44;;;-0.45;100.00
13734;BME280;43298;52.560;13.508;2023-04-04T00:31:53;102487.38;;;-0.40;100.00
13734;BME280;43298;52.560;13.508;2023-04-04T00:34:19;102487.25;;;-0.43;100.00
13734;BME280;43298;52.560;13.508;2023-04-04T00:36:45;102493.28;;;-0.41;100.00
13734;BME280;43298;52.560;13.508;2023-04-04T00:39:10;102489.13;;;-0.38;100.00
13734;BME280;43298;52.560;13.508;2023-04-04T00:41:36;102486.59;;;-0.38;100.00
13734;BME280;43298;52.560;13.508;2023-04-04T00:44:03;102498.44;;;-0.38;100.00
13734;BME280;43298;52.560;13.508;2023-04-04T00:46:28;102491.56;;;-0.42;100.00
13734;BME280;43298;52.560;13.508;2023-04-04T00:48:54;102499.59;;;-0.55;100.00
13734;BME280;43298;52.560;13.508;2023-04-04T00:51:20;102493.56;;;-0.59;100.00
13734;BME280;43298;52.560;13.508;2023-04-04T00:53:47;102489.81;;;-0.70;100.00
13734;BME280;43298;52.560;13.508;2023-04-04T00:56:14;102483.31;;;-0.62;100.00
13734;BME280;43298;52.560;13.508;2023-04-04T00:58:41;102482.75;;;-0.53;100.00
13734;BME280;43298;52.560;13.508;2023-04-04T01:01:08;102482.13;;;-0.46;100.00
13734;BME280;43298;52.560;13.508;2023-04-04T01:03:36;102480.25;;;-0.52;100.00
13734;BME280;43298;52.560;13.508;2023-04-04T01:06:02;102476.88;;;-0.51;100.00
13734;BME280;43298;52.560;13.508;2023-04-04T01:08:29;102475.59;;;-0.65;100.00
13734;BME280;43298;52.560;13.508;2023-04-04T01:10:55;102480.25;;;-0.77;100.00
13734;BME280;43298;52.560;13.508;2023-04-04T01:13:21;102477.66;;;-0.80;100.00
13734;BME280;43298;52.560;13.508;2023-04-04T01:15:47;102483.44;;;-0.84;100.00
13734;BME280;43298;52.560;13.508;2023-04-04T01:18:17;102479.00;;;-0.91;100.00
13734;BME280;43298;52.560;13.508;2023-04-04T01:21:02;102479.56;;;-0.99;100.00
13734;BME280;43298;52.560;13.508;2023-04-04T01:24:00;102471.38;;;-1.16;100.00
13734;BME280;43298;52.560;13.508;2023-04-04T01:26:28;102470.34;;;-1.21;100.00
13734;BME280;43298;52.560;13.508;2023-04-04T01:28:55;102469.53;;;-1.20;100.00
13734;BME280;43298;52.560;13.508;2023-04-04T01:31:28;102470.63;;;-1.13;100.00
13734;BME280;43298;52.560;13.508;2023-04-04T01:37:29;102470.50;;;-1.16;100.00
13734;BME280;43298;52.560;13.508;2023-04-04T01:40:16;102462.78;;;-1.19;100.00
13734;BME280;43298;52.560;13.508;2023-04-04T01:42:44;102463.09;;;-1.10;100.00
13734;BME280;43298;52.560;13.508;2023-04-04T01:45:10;102461.31;;;-1.13;100.00
13734;BME280;43298;52.560;13.508;2023-04-04T01:47:40;102461.84;;;-1.21;100.00
13734;BME280;43298;52.560;13.508;2023-04-04T01:50:09;102458.22;;;-1.29;100.00
13734;BME280;43298;52.560;13.508;2023-04-04T01:52:35;102456.16;;;-1.39;100.00
13734;BME280;43298;52.560;13.508;2023-04-04T01:55:02;102456.38;;;-1.33;100.00
13734;BME280;43298;52.560;13.508;2023-04-04T01:57:29;102453.56;;;-1.41;100.00
13734;BME280;43298;52.560;13.508;2023-04-04T01:59:55;102450.78;;;-1.48;100.00
13734;BME280;43298;52.560;13.508;2023-04-04T02:02:21;102454.69;;;-1.58;100.00
13734;BME280;43298;52.560;13.508;2023-04-04T02:04:47;102447.69;;;-1.65;100.00
13734;BME280;43298;52.560;13.508;2023-04-04T02:07:13;102443.16;;;-1.73;100.00
13734;BME280;43298;52.560;13.508;2023-04-04T02:09:39;102438.84;;;-1.76;100.00
13734;BME280;43298;52.560;13.508;2023-04-04T02:12:06;102435.38;;;-1.78;100.00
13734;BME280;43298;52.560;13.508;2023-04-04T02:14:32;102444.03;;;-1.71;100.00
13734;BME280;43298;52.560;13.508;2023-04-04T02:16:59;102443.81;;;-1.79;100.00
13734;BME280;43298;52.560;13.508;2023-04-04T02:19:25;102431.81;;;-1.83;100.00
13734;BME280;43298;52.560;13.508;2023-04-04T02:21:50;102441.16;;;-1.82;100.00
13734;BME280;43298;52.560;13.508;2023-04-04T02:24:16;102431.97;;;-1.78;100.00
13734;BME280;43298;52.560;13.508;2023-04-04T02:26:42;102437.81;;;-1.81;100.00
13734;BME280;43298;52.560;13.508;2023-04-04T02:29:08;102441.31;;;-1.77;100.00
13734;BME280;43298;52.560;13.508;2023-04-04T02:31:34;102433.22;;;-1.67;100.00
13734;BME280;43298;52.560;13.508;2023-04-04T02:34:00;102428.34;;;-1.61;100.00
13734;BME280;43298;52.560;13.508;2023-04-04T02:36:26;102430.66;;;-1.69;100.00
13734;BME280;43298;52.560;13.508;2023-04-04T02:38:52;102435.59;;;-1.72;100.00
13734;BME280;43298;52.560;13.508;2023-04-04T02:41:18;102430.47;;;-1.73;100.00
13734;BME280;43298;52.560;13.508;2023-04-04T02:43:43;102427.06;;;-1.74;100.00
13734;BME280;43298;52.560;13.508;2023-04-04T02:46:09;102428.47;;;-1.82;100.00
13734;BME280;43298;52.560;13.508;2023-04-04T02:48:35;102424.94;;;-1.87;100.00
13734;BME280;43298;52.560;13.508;2023-04-04T02:51:01;102424.53;;;-1.97;100.00
13734;BME280;43298;52.560;13.508;2023-04-04T02:53:27;102425.22;;;-2.01;100.00
13734;BME280;43298;52.560;13.508;2023-04-04T02:55:53;102419.88;;;-2.09;100.00
13734;BME280;43298;52.560;13.508;2023-04-04T02:58:19;102412.38;;;-2.06;100.00
13734;BME280;43298;52.560;13.508;2023-04-04T03:00:45;102418.28;;;-2.07;100.00
13734;BME280;43298;52.560;13.508;2023-04-04T03:03:13;102417.03;;;-2.18;100.00
13734;BME280;43298;52.560;13.508;2023-04-04T03:05:39;102413.16;;;-2.08;100.00
13734;BME280;43298;52.560;13.508;2023-04-04T03:08:05;102407.91;;;-2.13;100.00
13734;BME280;43298;52.560;13.508;2023-04-04T03:10:31;102406.13;;;-2.15;100.00
13734;BME280;43298;52.560;13.508;2023-04-04T03:12:57;102403.59;;;-2.15;100.00
13734;BME280;43298;52.560;13.508;2023-04-04T03:15:23;102404.72;;;-2.07;100.00
13734;BME280;43298;52.560;13.508;2023-04-04T03:17:51;102401.19;;;-2.12;100.00
13734;BME280;43298;52.560;13.508;2023-04-04T03:20:17;102398.25;;;-2.23;100.00
13734;BME280;43298;52.560;13.508;2023-04-04T03:22:43;102397.53;;;-2.20;100.00
13734;BME280;43298;52.560;13.508;2023-04-04T03:25:09;102396.28;;;-2.30;100.00
13734;BME280;43298;52.560;13.508;2023-04-04T03:27:35;102390.66;;;-2.23;100.00
13734;BME280;43298;52.560;13.508;2023-04-04T03:30:01;102394.63;;;-2.29;100.00
13734;BME280;43298;52.560;13.508;2023-04-04T03:32:27;102396.94;;;-2.35;100.00
13734;BME280;43298;52.560;13.508;2023-04-04T03:34:53;102394.41;;;-2.35;100.00
13734;BME280;43298;52.560;13.508;2023-04-04T03:37:19;102389.25;;;-2.38;100.00
13734;BME280;43298;52.560;13.508;2023-04-04T03:39:45;102385.53;;;-2.46;100.00
13734;BME280;43298;52.560;13.508;2023-04-04T03:42:11;102391.19;;;-2.53;100.00
13734;BME280;43298;52.560;13.508;2023-04-04T03:44:40;102383.38;;;-2.59;100.00
13734;BME280;43298;52.560;13.508;2023-04-04T03:47:06;102388.31;;;-2.62;100.00
13734;BME280;43298;52.560;13.508;2023-04-04T03:49:33;102381.50;;;-2.65;100.00
13734;BME280;43298;52.560;13.508;2023-04-04T03:51:59;102386.03;;;-2.56;100.00
13734;BME280;43298;52.560;13.508;2023-04-04T03:54:27;102378.38;;;-2.58;100.00
13734;BME280;43298;52.560;13.508;2023-04-04T03:56:54;102375.50;;;-2.67;100.00
13734;BME280;43298;52.560;13.508;2023-04-04T03:59:21;102374.53;;;-2.70;100.00
13734;BME280;43298;52.560;13.508;2023-04-04T04:01:47;102357.84;;;-2.65;100.00
13734;BME280;43298;52.560;13.508;2023-04-04T04:04:13;102365.88;;;-2.75;100.00
13734;BME280;43298;52.560;13.508;2023-04-04T04:06:39;102364.84;;;-2.80;100.00
13734;BME280;43298;52.560;13.508;2023-04-04T04:09:05;102362.19;;;-2.61;100.00
13734;BME280;43298;52.560;13.508;2023-04-04T04:11:31;102366.16;;;-2.46;100.00
13734;BME280;43298;52.560;13.508;2023-04-04T04:13:56;102362.19;;;-2.39;100.00
13734;BME280;43298;52.560;13.508;2023-04-04T04:16:22;102366.34;;;-2.41;100.00
13734;BME280;43298;52.560;13.508;2023-04-04T04:18:48;102367.25;;;-2.39;100.00
13734;BME280;43298;52.560;13.508;2023-04-04T04:21:14;102374.63;;;-2.45;100.00
13734;BME280;43298;52.560;13.508;2023-04-04T04:23:40;102378.59;;;-2.52;100.00
13734;BME280;43298;52.560;13.508;2023-04-04T04:26:06;102367.63;;;-2.52;100.00
13734;BME280;43298;52.560;13.508;2023-04-04T04:28:32;102368.19;;;-2.59;100.00
13734;BME280;43298;52.560;13.508;2023-04-04T04:31:08;102365.59;;;-2.39;100.00
13734;BME280;43298;52.560;13.508;2023-04-04T04:33:35;102368.63;;;-2.47;100.00
13734;BME280;43298;52.560;13.508;2023-04-04T04:36:02;102376.06;;;-2.52;100.00
13734;BME280;43298;52.560;13.508;2023-04-04T04:38:29;102365.72;;;-2.58;100.00
13734;BME280;43298;52.560;13.508;2023-04-04T04:40:56;102374.84;;;-2.61;100.00
13734;BME280;43298;52.560;13.508;2023-04-04T04:43:22;102367.25;;;-2.61;100.00
13734;BME280;43298;52.560;13.508;2023-04-04T04:45:48;102381.50;;;-2.65;100.00
13734;BME280;43298;52.560;13.508;2023-04-04T04:48:15;102379.69;;;-2.67;100.00
13734;BME280;43298;52.560;13.508;2023-04-04T04:50:45;102388.38;;;-2.61;100.00
13734;BME280;43298;52.560;13.508;2023-04-04T04:53:15;102384.28;;;-2.57;100.00
13734;BME280;43298;52.560;13.508;2023-04-04T04:55:41;102381.88;;;-2.54;100.00
13734;BME280;43298;52.560;13.508;2023-04-04T04:58:08;102392.00;;;-2.54;100.00
13734;BME280;43298;52.560;13.508;2023-04-04T05:00:36;102386.19;;;-2.52;100.00
13734;BME280;43298;52.560;13.508;2023-04-04T05:03:03;102381.88;;;-2.54;100.00
13734;BME280;43298;52.560;13.508;2023-04-04T05:05:32;102392.75;;;-2.57;100.00
13734;BME280;43298;52.560;13.508;2023-04-04T05:08:01;102391.88;;;-2.57;100.00
13734;BME280;43298;52.560;13.508;2023-04-04T05:10:31;102391.03;;;-2.58;100.00
13734;BME280;43298;52.560;13.508;2023-04-04T05:12:56;102383.59;;;-2.53;100.00
13734;BME280;43298;52.560;13.508;2023-04-04T05:15:23;102381.75;;;-2.35;100.00
13734;BME280;43298;52.560;13.508;2023-04-04T05:17:50;102387.38;;;-2.20;100.00
13734;BME280;43298;52.560;13.508;2023-04-04T05:20:16;102394.94;;;-1.98;100.00
13734;BME280;43298;52.560;13.508;2023-04-04T05:22:45;102398.38;;;-1.96;100.00
13734;BME280;43298;52.560;13.508;2023-04-04T05:25:12;102399.59;;;-1.87;100.00
13734;BME280;43298;52.560;13.508;2023-04-04T05:27:39;102400.53;;;-1.83;100.00
13734;BME280;43298;52.560;13.508;2023-04-04T05:30:06;102403.41;;;-1.74;100.00
13734;BME280;43298;52.560;13.508;2023-04-04T05:32:32;102408.63;;;-1.70;100.00
13734;BME280;43298;52.560;13.508;2023-04-04T05:34:58;102407.81;;;-1.69;100.00
13734;BME280;43298;52.560;13.508;2023-04-04T05:37:25;102408.63;;;-1.70;100.00
13734;BME280;43298;52.560;13.508;2023-04-04T05:39:50;102406.13;;;-1.68;100.00
13734;BME280;43298;52.560;13.508;2023-04-04T05:42:16;102407.88;;;-1.67;100.00
13734;BME280;43298;52.560;13.508;2023-04-04T05:44:42;102404.69;;;-1.62;100.00
13734;BME280;43298;52.560;13.508;2023-04-04T05:47:08;102405.75;;;-1.55;100.00
13734;BME280;43298;52.560;13.508;2023-04-04T05:49:34;102405.97;;;-1.49;100.00
13734;BME280;43298;52.560;13.508;2023-04-04T05:51:59;102399.56;;;-1.38;100.00
13734;BME280;43298;52.560;13.508;2023-04-04T05:54:25;102407.38;;;-1.32;100.00
13734;BME280;43298;52.560;13.508;2023-04-04T05:56:51;102402.72;;;-1.20;100.00
13734;BME280;43298;52.560;13.508;2023-04-04T05:59:17;102409.00;;;-1.09;100.00
13734;BME280;43298;52.560;13.508;2023-04-04T06:01:43;102405.13;;;-0.98;100.00
13734;BME280;43298;52.560;13.508;2023-04-04T06:04:09;102405.16;;;-0.97;100.00
13734;BME280;43298;52.560;13.508;2023-04-04T06:06:35;102409.63;;;-0.90;100.00
13734;BME280;43298;52.560;13.508;2023-04-04T06:09:01;102410.56;;;-0.86;100.00
13734;BME280;43298;52.560;13.508;2023-04-04T06:11:26;102396.56;;;-0.74;100.00
13734;BME280;43298;52.560;13.508;2023-04-04T06:13:52;102402.09;;;-0.60;100.00
13734;BME280;43298;52.560;13.508;2023-04-04T06:16:20;102403.22;;;-0.51;100.00
13734;BME280;43298;52.560;13.508;2023-04-04T06:18:46;102407.59;;;-0.17;100.00
13734;BME280;43298;52.560;13.508;2023-04-04T06:21:12;102414.72;;;0.57;100.00
13734;BME280;43298;52.560;13.508;2023-04-04T06:23:39;102411.75;;;1.08;100.00
13734;BME280;43298;52.560;13.508;2023-04-04T06:26:06;102406.78;;;1.50;100.00
13734;BME280;43298;52.560;13.508;2023-04-04T06:28:33;102404.53;;;2.06;100.00
13734;BME280;43298;52.560;13.508;2023-04-04T06:30:59;102403.53;;;2.41;100.00
13734;BME280;43298;52.560;13.508;2023-04-04T06:33:24;102404.06;;;2.24;100.00
13734;BME280;43298;52.560;13.508;2023-04-04T06:35:50;102398.69;;;2.10;100.00
13734;BME280;43298;52.560;13.508;2023-04-04T06:38:16;102396.19;;;2.13;100.00
13734;BME280;43298;52.560;13.508;2023-04-04T06:40:42;102384.13;;;2.06;100.00
13734;BME280;43298;52.560;13.508;2023-04-04T06:43:08;102393.47;;;2.04;100.00
13734;BME280;43298;52.560;13.508;2023-04-04T06:45:34;102398.72;;;2.58;100.00
13734;BME280;43298;52.560;13.508;2023-04-04T06:48:01;102400.03;;;2.36;100.00
13734;BME280;43298;52.560;13.508;2023-04-04T06:50:29;102398.84;;;2.65;100.00
13734;BME280;43298;52.560;13.508;2023-04-04T06:52:57;102396.97;;;2.55;100.00
13734;BME280;43298;52.560;13.508;2023-04-04T06:55:25;102398.91;;;2.68;100.00
13734;BME280;43298;52.560;13.508;2023-04-04T06:57:51;102395.38;;;3.14;100.00
13734;BME280;43298;52.560;13.508;2023-04-04T07:00:17;102398.94;;;2.70;100.00
13734;BME280;43298;52.560;13.508;2023-04-04T07:02:43;102396.06;;;3.02;100.00
13734;BME280;43298;52.560;13.508;2023-04-04T07:05:09;102401.75;;;2.86;100.00
13734;BME280;43298;52.560;13.508;2023-04-04T07:07:35;102396.78;;;2.94;100.00
13734;BME280;43298;52.560;13.508;2023-04-04T07:10:01;102387.75;;;3.78;100.00
13734;BME280;43298;52.560;13.508;2023-04-04T07:12:29;102391.94;;;3.70;100.00
13734;BME280;43298;52.560;13.508;2023-04-04T07:14:55;102384.00;;;3.51;100.00
13734;BME280;43298;52.560;13.508;2023-04-04T07:17:20;102374.88;;;3.71;100.00
13734;BME280;43298;52.560;13.508;2023-04-04T07:19:46;102376.16;;;3.39;100.00
13734;BME280;43298;52.560;13.508;2023-04-04T07:22:12;102381.00;;;3.82;100.00
13734;BME280;43298;52.560;13.508;2023-04-04T07:24:39;102375.28;;;4.04;100.00
13734;BME280;43298;52.560;13.508;2023-04-04T07:27:06;102377.66;;;3.87;100.00
13734;BME280;43298;52.560;13.508;2023-04-04T07:29:32;102376.09;;;4.00;100.00
13734;BME280;43298;52.560;13.508;2023-04-04T07:31:57;102379.25;;;3.81;100.00
13734;BME280;43298;52.560;13.508;2023-04-04T07:34:23;102371.47;;;3.72;100.00
13734;BME280;43298;52.560;13.508;2023-04-04T07:36:51;102367.44;;;3.89;100.00
13734;BME280;43298;52.560;13.508;2023-04-04T07:39:18;102367.38;;;3.84;100.00
13734;BME280;43298;52.560;13.508;2023-04-04T07:41:44;102372.97;;;4.26;100.00
13734;BME280;43298;52.560;13.508;2023-04-04T07:44:10;102371.22;;;4.22;100.00
13734;BME280;43298;52.560;13.508;2023-04-04T07:46:36;102365.47;;;4.46;100.00
13734;BME280;43298;52.560;13.508;2023-04-04T07:49:02;102370.56;;;4.43;100.00
13734;BME280;43298;52.560;13.508;2023-04-04T07:51:28;102366.94;;;4.21;100.00
13734;BME280;43298;52.560;13.508;2023-04-04T07:53:55;102366.34;;;4.49;100.00
13734;BME280;43298;52.560;13.508;2023-04-04T07:56:22;102361.47;;;4.76;100.00
13734;BME280;43298;52.560;13.508;2023-04-04T07:58:48;102365.03;;;4.96;100.00
13734;BME280;43298;52.560;13.508;2023-04-04T08:01:13;102360.63;;;4.77;100.00
13734;BME280;43298;52.560;13.508;2023-04-04T08:03:39;102365.94;;;5.01;100.00
13734;BME280;43298;52.560;13.508;2023-04-04T08:06:05;102365.34;;;4.34;100.00
13734;BME280;43298;52.560;13.508;2023-04-04T08:08:31;102363.38;;;5.03;100.00
13734;BME280;43298;52.560;13.508;2023-04-04T08:10:57;102363.53;;;5.24;100.00
13734;BME280;43298;52.560;13.508;2023-04-04T08:13:22;102355.81;;;5.22;100.00
13734;BME280;43298;52.560;13.508;2023-04-04T08:15:48;102357.19;;;4.72;100.00
13734;BME280;43298;52.560;13.508;2023-04-04T08:18:14;102354.13;;;5.27;100.00
13734;BME280;43298;52.560;13.508;2023-04-04T08:20:40;102354.16;;;5.29;100.00
13734;BME280;43298;52.560;13.508;2023-04-04T08:23:06;102356.13;;;5.84;100.00
13734;BME280;43298;52.560;13.508;2023-04-04T08:25:32;102353.25;;;5.22;100.00
13734;BME280;43298;52.560;13.508;2023-04-04T08:27:59;102344.03;;;5.56;100.00
13734;BME280;43298;52.560;13.508;2023-04-04T08:30:25;102350.69;;;5.27;100.00
13734;BME280;43298;52.560;13.508;2023-04-04T08:32:51;102348.00;;;5.03;100.00
13734;BME280;43298;52.560;13.508;2023-04-04T08:35:17;102351.72;;;5.60;100.00
13734;BME280;43298;52.560;13.508;2023-04-04T08:37:46;102339.91;;;5.88;100.00
13734;BME280;43298;52.560;13.508;2023-04-04T08:40:13;102344.97;;;5.79;100.00
13734;BME280;43298;52.560;13.508;2023-04-04T08:42:40;102340.63;;;5.66;100.00
13734;BME280;43298;52.560;13.508;2023-04-04T08:45:11;102340.78;;;6.03;100.00
13734;BME280;43298;52.560;13.508;2023-04-04T08:47:37;102342.50;;;6.00;100.00
13734;BME280;43298;52.560;13.508;2023-04-04T08:50:06;102339.97;;;6.06;100.00
13734;BME280;43298;52.560;13.508;2023-04-04T08:52:34;102346.69;;;5.75;100.00
13734;BME280;43298;52.560;13.508;2023-04-04T08:55:04;102333.94;;;5.99;100.00
13734;BME280;43298;52.560;13.508;2023-04-04T08:57:31;102329.75;;;6.65;100.00
13734;BME280;43298;52.560;13.508;2023-04-04T08:59:58;102323.69;;;6.16;100.00
13734;BME280;43298;52.560;13.508;2023-04-04T09:05:02;102310.03;;;6.82;100.00
13734;BME280;43298;52.560;13.508;2023-04-04T09:07:29;102315.16;;;6.89;96.68
13734;BME280;43298;52.560;13.508;2023-04-04T09:09:56;102309.22;;;6.66;95.79
13734;BME280;43298;52.560;13.508;2023-04-04T09:12:23;102314.19;;;7.37;96.58
13734;BME280;43298;52.560;13.508;2023-04-04T09:14:51;102309.19;;;6.75;95.10
13734;BME280;43298;52.560;13.508;2023-04-04T09:17:17;102301.88;;;7.97;92.10
13734;BME280;43298;52.560;13.508;2023-04-04T09:19:43;102309.69;;;7.87;87.47
13734;BME280;43298;52.560;13.508;2023-04-04T09:22:10;102297.94;;;8.70;87.89
13734;BME280;43298;52.560;13.508;2023-04-04T09:24:38;102304.31;;;8.24;85.05
13734;BME280;43298;52.560;13.508;2023-04-04T09:27:07;102296.72;;;7.99;83.87
13734;BME280;43298;52.560;13.508;2023-04-04T09:29:39;102295.78;;;8.15;79.89
13734;BME280;43298;52.560;13.508;2023-04-04T09:32:15;102297.47;;;8.22;78.63
13734;BME280;43298;52.560;13.508;2023-04-04T09:34:42;102297.06;;;7.36;81.34
13734;BME280;43298;52.560;13.508;2023-04-04T09:37:09;102300.59;;;6.91;85.48
13734;BME280;43298;52.560;13.508;2023-04-04T09:39:38;102305.59;;;7.48;86.96
13734;BME280;43298;52.560;13.508;2023-04-04T09:42:06;102297.06;;;7.36;84.88
13734;BME280;43298;52.560;13.508;2023-04-04T09:44:35;102304.91;;;6.44;86.12
13734;BME280;43298;52.560;13.508;2023-04-04T09:47:27;102306.59;;;6.71;87.45
13734;BME280;43298;52.560;13.508;2023-04-04T09:49:59;102305.78;;;6.66;89.37
13734;BME280;43298;52.560;13.508;2023-04-04T09:52:26;102306.63;;;6.22;87.75
13734;BME280;43298;52.560;13.508;2023-04-04T09:54:59;102303.97;;;5.91;88.71
13734;BME280;43298;52.560;13.508;2023-04-04T09:57:30;102298.03;;;6.20;88.89
13734;BME280;43298;52.560;13.508;2023-04-04T10:00:01;102300.56;;;5.92;88.43
13734;BME280;43298;52.560;13.508;2023-04-04T10:02:29;102299.75;;;6.14;89.65
13734;BME280;43298;52.560;13.508;2023-04-04T10:04:56;102301.47;;;6.54;89.02
13734;BME280;43298;52.560;13.508;2023-04-04T10:07:25;102292.03;;;6.85;84.42
13734;BME280;43298;52.560;13.508;2023-04-04T10:09:51;102287.78;;;6.34;84.38
13734;BME280;43298;52.560;13.508;2023-04-04T10:12:23;102291.22;;;6.27;84.26
13734;BME280;43298;52.560;13.508;2023-04-04T10:14:56;102288.63;;;6.19;85.21
13734;BME280;43298;52.560;13.508;2023-04-04T10:17:24;102279.19;;;6.05;84.24
13734;BME280;43298;52.560;13.508;2023-04-04T10:19:51;102283.47;;;6.13;84.70
13734;BME280;43298;52.560;13.508;2023-04-04T10:22:20;102284.34;;;6.31;84.51
13734;BME280;43298;52.560;13.508;2023-04-04T10:24:46;102286.06;;;6.54;84.63
13734;BME280;43298;52.560;13.508;2023-04-04T10:27:12;102279.16;;;6.03;81.41
13734;BME280;43298;52.560;13.508;2023-04-04T10:29:38;102280.91;;;6.03;81.88
13734;BME280;43298;52.560;13.508;2023-04-04T10:32:05;102285.19;;;6.19;81.71
13734;BME280;43298;52.560;13.508;2023-04-04T10:35:09;102275.78;;;6.26;78.84
13734;BME280;43298;52.560;13.508;2023-04-04T10:37:51;102268.94;;;6.56;79.76
13734;BME280;43298;52.560;13.508;2023-04-04T10:40:21;102269.75;;;6.76;78.85
13734;BME280;43298;52.560;13.508;2023-04-04T10:42:50;102269.56;;;7.44;77.74
13734;BME280;43298;52.560;13.508;2023-04-04T10:45:16;102267.47;;;8.07;75.98
13734;BME280;43298;52.560;13.508;2023-04-04T10:47:43;102263.88;;;8.32;73.21
13734;BME280;43298;52.560;13.508;2023-04-04T10:50:10;102256.69;;;9.45;71.63
13734;BME280;43298;52.560;13.508;2023-04-04T10:52:40;102255.75;;;8.77;68.94
13734;BME280;43298;52.560;13.508;2023-04-04T10:55:12;102249.06;;;7.18;67.10
13734;BME280;43298;52.560;13.508;2023-04-04T10:57:44;102250.50;;;7.76;64.59
13734;BME280;43298;52.560;13.508;2023-04-04T11:00:16;102242.88;;;7.64;63.58
13734;BME280;43298;52.560;13.508;2023-04-04T11:03:00;102240.28;;;7.66;63.95
13734;BME280;43298;52.560;13.508;2023-04-04T11:05:31;102232.53;;;7.70;64.08
13734;BME280;43298;52.560;13.508;2023-04-04T11:08:05;102233.63;;;7.21;65.91
13734;BME280;43298;52.560;13.508;2023-04-04T11:10:37;102229.19;;;7.59;65.79
13734;BME280;43298;52.560;13.508;2023-04-04T11:13:14;102221.66;;;7.20;65.23
13734;BME280;43298;52.560;13.508;2023-04-04T11:16:06;102229.22;;;7.49;66.25
13734;BME280;43298;52.560;13.508;2023-04-04T11:21:22;102221.28;;;7.83;63.81
13734;BME280;43298;52.560;13.508;2023-04-04T11:28:59;102219.06;;;7.20;65.22
13734;BME280;43298;52.560;13.508;2023-04-04T11:31:47;102212.81;;;7.68;66.24
13734;BME280;43298;52.560;13.508;2023-04-04T11:34:18;102213.78;;;8.63;63.74
13734;BME280;43298;52.560;13.508;2023-04-04T11:36:53;102214.97;;;9.11;59.77
13734;BME280;43298;52.560;13.508;2023-04-04T11:39:30;102203.03;;;9.65;58.38
13734;BME280;43298;52.560;13.508;2023-04-04T11:42:14;102195.66;;;9.97;55.82
13734;BME280;43298;52.560;13.508;2023-04-04T11:45:01;102182.91;;;9.27;56.08
13734;BME280;43298;52.560;13.508;2023-04-04T11:47:29;102183.78;;;8.53;57.48
13734;BME280;43298;52.560;13.508;2023-04-04T11:49:58;102202.53;;;8.70;60.55
13734;BME280;43298;52.560;13.508;2023-04-04T11:52:25;102187.56;;;8.16;59.89
13734;BME280;43298;52.560;13.508;2023-04-04T11:54:56;102186.66;;;8.20;59.64
13734;BME280;43298;52.560;13.508;2023-04-04T11:57:22;102179.50;;;7.42;60.05
13734;BME280;43298;52.560;13.508;2023-04-04T11:59:49;102182.56;;;7.95;61.07
13734;BME280;43298;52.560;13.508;2023-04-04T12:02:23;102172.34;;;9.45;60.08
13734;BME280;43298;52.560;13.508;2023-04-04T12:04:56;102172.31;;;8.81;57.44
13734;BME280;43298;52.560;13.508;2023-04-04T12:07:23;102160.34;;;10.47;57.56
13734;BME280;43298;52.560;13.508;2023-04-04T12:09:52;102164.69;;;10.45;52.95
13734;BME280;43298;52.560;13.508;2023-04-04T12:12:18;102164.19;;;9.11;53.33
13734;BME280;43298;52.560;13.508;2023-04-04T12:14:44;102160.44;;;9.35;55.72
13734;BME280;43298;52.560;13.508;2023-04-04T12:17:10;102160.75;;;8.37;56.96
13734;BME280;43298;52.560;13.508;2023-04-04T12:19:39;102159.75;;;8.51;58.63
13734;BME280;43298;52.560;13.508;2023-04-04T12:22:06;102159.97;;;8.30;58.74
13734;BME280;43298;52.560;13.508;2023-04-04T12:24:35;102156.25;;;8.58;59.23
13734;BME280;43298;52.560;13.508;2023-04-04T12:27:01;102157.81;;;9.37;57.56
13734;BME280;43298;52.560;13.508;2023-04-04T12:29:29;102147.88;;;9.09;54.99
13734;BME280;43298;52.560;13.508;2023-04-04T12:32:01;102141.81;;;9.13;56.93
13734;BME280;43298;52.560;13.508;2023-04-04T12:34:31;102145.72;;;8.76;56.72
13734;BME280;43298;52.560;13.508;2023-04-04T12:36:59;102139.28;;;8.36;55.51
13734;BME280;43298;52.560;13.508;2023-04-04T12:39:26;102138.41;;;8.39;54.32
13734;BME280;43298;52.560;13.508;2023-04-04T12:42:01;102125.66;;;8.99;56.28
13734;BME280;43298;52.560;13.508;2023-04-04T12:44:38;102127.22;;;9.11;54.45
13734;BME280;43298;52.560;13.508;2023-04-04T12:47:06;102124.38;;;9.29;52.10
13734;BME280;43298;52.560;13.508;2023-04-04T12:49:39;102117.78;;;9.10;52.12
13734;BME280;43298;52.560;13.508;2023-04-04T12:52:06;102117.41;;;8.72;54.26
13734;BME280;43298;52.560;13.508;2023-04-04T12:54:38;102113.66;;;8.23;56.06